Ft Sturla — IBXV — position and weather

sailwx.info

Track history (hours):
 
Tides and Currents Weather Stations Pressure Air Temp Water Temp Dewpoint Dewpoint Depression Visibility Wind Speed Wind Dir Waves Ship Positions

Ft Sturla

Last reported at 2018-Apr-23 16:42 UTC. Time now 2018-Apr-23 17:37 UTC.
Position N 37°11' E 003°19'.

Length 120 m; draft 6.3 m.

Type: Tanker. MMSI: 247282200.

Date/timePositionNaut miles runAvg speedWind from/ knotsBaromVisibWave heightAir tempDewpointWater temp
2018-Apr-23 16:42N 37°11' E 003°19'4310.4
2018-Apr-23 12:35N 37°17' E 004°12'210.9
2018-Apr-23 12:27N 37°18' E 004°13'511.1
2018-Apr-23 12:00N 37°18' E 004°20'2710.6
2018-Apr-23 09:26N 37°21' E 004°54'43110.6
2018-Apr-21 16:43N 36°52' E 013°53'2 8.5
2018-Apr-21 16:28N 36°52' E 013°55'611.6
2018-Apr-21 16:00N 36°50' E 014°02'5 9.7
2018-Apr-21 15:30N 36°47' E 014°07'5 9.5
2018-Apr-21 15:00N 36°45' E 014°12'510.1
2018-Apr-21 14:30N 36°43' E 014°18'610.4
2018-Apr-21 13:57N 36°40' E 014°24'5 8.6
2018-Apr-21 13:24N 36°39' E 014°30'4 9.3
2018-Apr-21 12:57N 36°38' E 014°35'510.8
2018-Apr-21 12:27N 36°36' E 014°41'5 9.5
2018-Apr-21 11:57N 36°35' E 014°47'612.0
2018-Apr-21 11:28N 36°34' E 014°54'4 8.6
2018-Apr-21 10:58N 36°34' E 014°60'  
2018-Apr-18 12:15N 35°52' E 030°22'311.2
2018-Apr-18 11:57N 35°52' E 030°27'511.0
2018-Apr-18 11:30N 35°52' E 030°32'611.1
2018-Apr-18 11:00N 35°52' E 030°39'611.2
2018-Apr-18 10:30N 35°53' E 030°46'511.1
2018-Apr-18 10:00N 35°53' E 030°53'511.0
2018-Apr-18 09:30N 35°53' E 030°60'610.8
2018-Apr-18 08:59N 35°53' E 031°07'510.7
2018-Apr-18 08:29N 35°53' E 031°13'510.9
2018-Apr-18 08:00N 35°53' E 031°20'510.9
2018-Apr-18 07:30N 35°53' E 031°27'511.0
2018-Apr-18 07:00N 35°54' E 031°33'611.0
2018-Apr-18 06:30N 35°54' E 031°40'1211.0
2018-Apr-18 05:25N 35°54' E 031°55'410.8
2018-Apr-18 05:01N 35°54' E 032°00'610.8
2018-Apr-18 04:30N 35°54' E 032°07'  
2018-Apr-14 00:47N 35°43' E 032°07'311.1
2018-Apr-14 00:30N 35°43' E 032°03'911.2
2018-Apr-13 23:44N 35°41' E 031°53'6611.5
2018-Apr-13 18:00N 35°30' E 030°33'  
Track history (hours):
 
Tides and Currents Weather Stations Pressure Air Temp Water Temp Dewpoint Dewpoint Depression Visibility Wind Speed Wind Dir Waves Ship Positions

Ft Sturla

Last reported at 2018-Apr-23 16:42 UTC. Time now 2018-Apr-23 17:37 UTC.
Position N 37°11' E 003°19'.

Length 120 m; draft 6.3 m.

Type: Tanker. MMSI: 247282200.

Date/timePositionNaut miles runAvg speedWind from/ knotsBaromVisibWave heightAir tempDewpointWater temp
2018-Apr-23 16:42N 37°11' E 003°19'4310.4
2018-Apr-23 12:35N 37°17' E 004°12'210.9
2018-Apr-23 12:27N 37°18' E 004°13'511.1
2018-Apr-23 12:00N 37°18' E 004°20'2710.6
2018-Apr-23 09:26N 37°21' E 004°54'43110.6
2018-Apr-21 16:43N 36°52' E 013°53'2 8.5
2018-Apr-21 16:28N 36°52' E 013°55'611.6
2018-Apr-21 16:00N 36°50' E 014°02'5 9.7
2018-Apr-21 15:30N 36°47' E 014°07'5 9.5
2018-Apr-21 15:00N 36°45' E 014°12'510.1
2018-Apr-21 14:30N 36°43' E 014°18'610.4
2018-Apr-21 13:57N 36°40' E 014°24'5 8.6
2018-Apr-21 13:24N 36°39' E 014°30'4 9.3
2018-Apr-21 12:57N 36°38' E 014°35'510.8
2018-Apr-21 12:27N 36°36' E 014°41'5 9.5
2018-Apr-21 11:57N 36°35' E 014°47'612.0
2018-Apr-21 11:28N 36°34' E 014°54'4 8.6
2018-Apr-21 10:58N 36°34' E 014°60'  
2018-Apr-18 12:15N 35°52' E 030°22'311.2
2018-Apr-18 11:57N 35°52' E 030°27'511.0
2018-Apr-18 11:30N 35°52' E 030°32'611.1
2018-Apr-18 11:00N 35°52' E 030°39'611.2
2018-Apr-18 10:30N 35°53' E 030°46'511.1
2018-Apr-18 10:00N 35°53' E 030°53'511.0
2018-Apr-18 09:30N 35°53' E 030°60'610.8
2018-Apr-18 08:59N 35°53' E 031°07'510.7
2018-Apr-18 08:29N 35°53' E 031°13'510.9
2018-Apr-18 08:00N 35°53' E 031°20'510.9
2018-Apr-18 07:30N 35°53' E 031°27'511.0
2018-Apr-18 07:00N 35°54' E 031°33'611.0
2018-Apr-18 06:30N 35°54' E 031°40'1211.0
2018-Apr-18 05:25N 35°54' E 031°55'410.8
2018-Apr-18 05:01N 35°54' E 032°00'610.8
2018-Apr-18 04:30N 35°54' E 032°07'  
2018-Apr-14 00:47N 35°43' E 032°07'311.1
2018-Apr-14 00:30N 35°43' E 032°03'911.2
2018-Apr-13 23:44N 35°41' E 031°53'6611.5
2018-Apr-13 18:00N 35°30' E 030°33'  

Dump ship's entire track history